sensor_id;sensor_type;location;lat;lon;timestamp;P1;durP1;ratioP1;P2;durP2;ratioP2
54464;SDS011;40374;49.480;20.016;2022-09-28T00:03:44;10.50;;;6.05;;
54464;SDS011;40374;49.480;20.016;2022-09-28T00:06:14;7.38;;;5.35;;
54464;SDS011;40374;49.480;20.016;2022-09-28T00:08:44;11.68;;;6.63;;
54464;SDS011;40374;49.480;20.016;2022-09-28T00:11:12;11.18;;;7.15;;
54464;SDS011;40374;49.480;20.016;2022-09-28T00:13:47;13.85;;;7.25;;
54464;SDS011;40374;49.480;20.016;2022-09-28T00:16:18;9.20;;;5.60;;
54464;SDS011;40374;49.480;20.016;2022-09-28T00:18:47;9.57;;;5.88;;
54464;SDS011;40374;49.480;20.016;2022-09-28T00:21:18;9.18;;;5.65;;
54464;SDS011;40374;49.480;20.016;2022-09-28T00:23:50;11.70;;;6.00;;
54464;SDS011;40374;49.480;20.016;2022-09-28T00:31:49;13.85;;;7.47;;
54464;SDS011;40374;49.480;20.016;2022-09-28T00:34:18;11.98;;;6.75;;
54464;SDS011;40374;49.480;20.016;2022-09-28T00:36:46;10.48;;;7.28;;
54464;SDS011;40374;49.480;20.016;2022-09-28T00:39:14;12.88;;;8.32;;
54464;SDS011;40374;49.480;20.016;2022-09-28T00:41:43;17.13;;;10.85;;
54464;SDS011;40374;49.480;20.016;2022-09-28T00:46:49;20.77;;;11.40;;
54464;SDS011;40374;49.480;20.016;2022-09-28T00:49:31;24.02;;;13.32;;
54464;SDS011;40374;49.480;20.016;2022-09-28T00:52:04;34.40;;;17.33;;
54464;SDS011;40374;49.480;20.016;2022-09-28T00:54:34;19.52;;;11.40;;
54464;SDS011;40374;49.480;20.016;2022-09-28T00:57:02;15.95;;;9.77;;
54464;SDS011;40374;49.480;20.016;2022-09-28T00:59:31;13.95;;;7.70;;
54464;SDS011;40374;49.480;20.016;2022-09-28T01:02:00;8.98;;;6.00;;
54464;SDS011;40374;49.480;20.016;2022-09-28T01:04:28;11.10;;;6.00;;
54464;SDS011;40374;49.480;20.016;2022-09-28T01:06:57;10.50;;;6.55;;
54464;SDS011;40374;49.480;20.016;2022-09-28T01:09:25;39.38;;;16.25;;
54464;SDS011;40374;49.480;20.016;2022-09-28T01:11:53;11.43;;;7.60;;
54464;SDS011;40374;49.480;20.016;2022-09-28T01:14:21;14.20;;;9.63;;
54464;SDS011;40374;49.480;20.016;2022-09-28T01:19:52;9.30;;;6.68;;
54464;SDS011;40374;49.480;20.016;2022-09-28T01:28:13;8.90;;;6.72;;
54464;SDS011;40374;49.480;20.016;2022-09-28T01:30:50;11.02;;;7.93;;
54464;SDS011;40374;49.480;20.016;2022-09-28T01:33:27;12.80;;;8.98;;
54464;SDS011;40374;49.480;20.016;2022-09-28T01:36:03;8.95;;;6.30;;
54464;SDS011;40374;49.480;20.016;2022-09-28T01:41:09;9.63;;;5.72;;
54464;SDS011;40374;49.480;20.016;2022-09-28T01:43:39;12.07;;;5.93;;
54464;SDS011;40374;49.480;20.016;2022-09-28T01:46:12;13.50;;;8.93;;
54464;SDS011;40374;49.480;20.016;2022-09-28T01:51:28;13.20;;;9.90;;
54464;SDS011;40374;49.480;20.016;2022-09-28T01:54:08;11.15;;;7.72;;
54464;SDS011;40374;49.480;20.016;2022-09-28T01:56:43;11.27;;;7.78;;
54464;SDS011;40374;49.480;20.016;2022-09-28T01:59:17;11.90;;;7.32;;
54464;SDS011;40374;49.480;20.016;2022-09-28T02:01:59;10.85;;;6.65;;
54464;SDS011;40374;49.480;20.016;2022-09-28T02:04:32;8.55;;;5.30;;
54464;SDS011;40374;49.480;20.016;2022-09-28T02:07:12;8.13;;;6.18;;
54464;SDS011;40374;49.480;20.016;2022-09-28T02:09:51;8.35;;;6.35;;
54464;SDS011;40374;49.480;20.016;2022-09-28T02:12:35;9.85;;;6.70;;
54464;SDS011;40374;49.480;20.016;2022-09-28T02:15:11;10.68;;;7.10;;
54464;SDS011;40374;49.480;20.016;2022-09-28T02:17:45;12.23;;;6.85;;
54464;SDS011;40374;49.480;20.016;2022-09-28T02:20:15;10.15;;;7.03;;
54464;SDS011;40374;49.480;20.016;2022-09-28T02:22:47;10.45;;;6.38;;
54464;SDS011;40374;49.480;20.016;2022-09-28T02:28:02;9.05;;;6.40;;
54464;SDS011;40374;49.480;20.016;2022-09-28T02:30:32;9.07;;;6.10;;
54464;SDS011;40374;49.480;20.016;2022-09-28T02:35:40;11.60;;;6.30;;
54464;SDS011;40374;49.480;20.016;2022-09-28T02:38:09;8.75;;;6.47;;
54464;SDS011;40374;49.480;20.016;2022-09-28T02:40:38;9.35;;;7.00;;
54464;SDS011;40374;49.480;20.016;2022-09-28T02:55:16;9.20;;;6.43;;
54464;SDS011;40374;49.480;20.016;2022-09-28T03:12:17;8.93;;;6.07;;
54464;SDS011;40374;49.480;20.016;2022-09-28T03:14:46;9.52;;;6.38;;
54464;SDS011;40374;49.480;20.016;2022-09-28T03:17:16;9.07;;;5.70;;
54464;SDS011;40374;49.480;20.016;2022-09-28T03:19:46;13.07;;;6.22;;
54464;SDS011;40374;49.480;20.016;2022-09-28T03:22:13;11.80;;;5.88;;
54464;SDS011;40374;49.480;20.016;2022-09-28T03:24:41;9.43;;;6.07;;
54464;SDS011;40374;49.480;20.016;2022-09-28T03:27:08;10.30;;;6.43;;
54464;SDS011;40374;49.480;20.016;2022-09-28T03:29:35;9.13;;;6.13;;
54464;SDS011;40374;49.480;20.016;2022-09-28T03:32:05;10.32;;;6.07;;
54464;SDS011;40374;49.480;20.016;2022-09-28T03:34:35;10.73;;;6.50;;
54464;SDS011;40374;49.480;20.016;2022-09-28T03:37:03;12.38;;;6.38;;
54464;SDS011;40374;49.480;20.016;2022-09-28T03:39:31;10.35;;;6.88;;
54464;SDS011;40374;49.480;20.016;2022-09-28T03:41:59;10.20;;;6.72;;
54464;SDS011;40374;49.480;20.016;2022-09-28T03:44:29;13.13;;;7.93;;
54464;SDS011;40374;49.480;20.016;2022-09-28T03:46:56;13.55;;;8.57;;
54464;SDS011;40374;49.480;20.016;2022-09-28T03:49:24;14.73;;;9.13;;
54464;SDS011;40374;49.480;20.016;2022-09-28T03:51:51;13.88;;;8.90;;
54464;SDS011;40374;49.480;20.016;2022-09-28T03:54:18;11.90;;;9.07;;
54464;SDS011;40374;49.480;20.016;2022-09-28T03:56:46;11.50;;;8.10;;
54464;SDS011;40374;49.480;20.016;2022-09-28T03:59:16;13.18;;;8.50;;
54464;SDS011;40374;49.480;20.016;2022-09-28T04:01:43;15.95;;;7.60;;
54464;SDS011;40374;49.480;20.016;2022-09-28T04:04:12;11.05;;;7.05;;
54464;SDS011;40374;49.480;20.016;2022-09-28T04:06:39;13.07;;;7.57;;
54464;SDS011;40374;49.480;20.016;2022-09-28T04:09:08;9.90;;;7.32;;
54464;SDS011;40374;49.480;20.016;2022-09-28T04:11:36;12.13;;;7.10;;
54464;SDS011;40374;49.480;20.016;2022-09-28T04:14:23;10.85;;;6.90;;
54464;SDS011;40374;49.480;20.016;2022-09-28T04:16:51;14.20;;;6.97;;
54464;SDS011;40374;49.480;20.016;2022-09-28T04:19:22;10.52;;;7.28;;
54464;SDS011;40374;49.480;20.016;2022-09-28T04:22:08;11.23;;;7.60;;
54464;SDS011;40374;49.480;20.016;2022-09-28T04:24:37;17.65;;;10.77;;
54464;SDS011;40374;49.480;20.016;2022-09-28T04:27:05;11.82;;;7.38;;
54464;SDS011;40374;49.480;20.016;2022-09-28T04:30:01;8.48;;;6.22;;
54464;SDS011;40374;49.480;20.016;2022-09-28T04:32:30;8.18;;;5.45;;
54464;SDS011;40374;49.480;20.016;2022-09-28T04:34:58;15.68;;;5.97;;
54464;SDS011;40374;49.480;20.016;2022-09-28T04:37:26;6.13;;;4.60;;
54464;SDS011;40374;49.480;20.016;2022-09-28T04:39:53;9.25;;;5.80;;
54464;SDS011;40374;49.480;20.016;2022-09-28T04:42:21;132.55;;;60.63;;
54464;SDS011;40374;49.480;20.016;2022-09-28T04:44:49;107.25;;;53.83;;
54464;SDS011;40374;49.480;20.016;2022-09-28T04:47:17;66.88;;;37.38;;
54464;SDS011;40374;49.480;20.016;2022-09-28T04:50:03;29.38;;;17.15;;
54464;SDS011;40374;49.480;20.016;2022-09-28T04:52:34;14.30;;;9.82;;
54464;SDS011;40374;49.480;20.016;2022-09-28T04:55:03;7.90;;;5.13;;
54464;SDS011;40374;49.480;20.016;2022-09-28T04:57:33;5.32;;;4.82;;
54464;SDS011;40374;49.480;20.016;2022-09-28T05:00:02;7.13;;;4.60;;
54464;SDS011;40374;49.480;20.016;2022-09-28T05:02:32;6.15;;;4.75;;
54464;SDS011;40374;49.480;20.016;2022-09-28T05:05:32;4.03;;;3.10;;
54464;SDS011;40374;49.480;20.016;2022-09-28T05:08:20;4.80;;;3.38;;
54464;SDS011;40374;49.480;20.016;2022-09-28T05:10:47;5.35;;;3.50;;
54464;SDS011;40374;49.480;20.016;2022-09-28T05:13:15;6.60;;;4.68;;
54464;SDS011;40374;49.480;20.016;2022-09-28T05:15:44;4.93;;;3.20;;
54464;SDS011;40374;49.480;20.016;2022-09-28T05:18:12;5.32;;;3.70;;
54464;SDS011;40374;49.480;20.016;2022-09-28T05:20:46;7.22;;;4.30;;
54464;SDS011;40374;49.480;20.016;2022-09-28T05:23:14;8.05;;;4.40;;
54464;SDS011;40374;49.480;20.016;2022-09-28T05:25:44;11.52;;;5.95;;
54464;SDS011;40374;49.480;20.016;2022-09-28T05:28:26;13.63;;;7.05;;
54464;SDS011;40374;49.480;20.016;2022-09-28T05:31:15;8.43;;;5.03;;
54464;SDS011;40374;49.480;20.016;2022-09-28T05:33:56;7.85;;;5.55;;
54464;SDS011;40374;49.480;20.016;2022-09-28T05:36:24;8.95;;;5.40;;
54464;SDS011;40374;49.480;20.016;2022-09-28T05:38:55;10.93;;;5.22;;
54464;SDS011;40374;49.480;20.016;2022-09-28T05:41:23;13.32;;;4.80;;
54464;SDS011;40374;49.480;20.016;2022-09-28T05:43:50;11.82;;;5.78;;
54464;SDS011;40374;49.480;20.016;2022-09-28T05:46:19;6.97;;;4.95;;
54464;SDS011;40374;49.480;20.016;2022-09-28T05:48:50;7.03;;;3.63;;
54464;SDS011;40374;49.480;20.016;2022-09-28T05:51:18;6.00;;;2.60;;
54464;SDS011;40374;49.480;20.016;2022-09-28T05:53:46;4.72;;;2.95;;
54464;SDS011;40374;49.480;20.016;2022-09-28T05:56:16;3.88;;;2.83;;
54464;SDS011;40374;49.480;20.016;2022-09-28T05:58:44;3.03;;;2.22;;
54464;SDS011;40374;49.480;20.016;2022-09-28T06:01:12;5.88;;;2.00;;
54464;SDS011;40374;49.480;20.016;2022-09-28T06:03:40;2.30;;;1.80;;
54464;SDS011;40374;49.480;20.016;2022-09-28T06:06:07;3.72;;;1.60;;
54464;SDS011;40374;49.480;20.016;2022-09-28T06:08:36;1.60;;;1.50;;
54464;SDS011;40374;49.480;20.016;2022-09-28T06:11:27;2.13;;;1.23;;
54464;SDS011;40374;49.480;20.016;2022-09-28T06:13:56;2.42;;;1.60;;
54464;SDS011;40374;49.480;20.016;2022-09-28T06:16:27;1.30;;;1.20;;
54464;SDS011;40374;49.480;20.016;2022-09-28T06:18:55;1.48;;;1.17;;
54464;SDS011;40374;49.480;20.016;2022-09-28T06:21:42;2.45;;;1.30;;
54464;SDS011;40374;49.480;20.016;2022-09-28T06:24:10;3.33;;;1.48;;
54464;SDS011;40374;49.480;20.016;2022-09-28T06:26:37;1.70;;;1.58;;
54464;SDS011;40374;49.480;20.016;2022-09-28T06:29:05;1.98;;;1.50;;
54464;SDS011;40374;49.480;20.016;2022-09-28T06:31:33;1.58;;;1.13;;
54464;SDS011;40374;49.480;20.016;2022-09-28T06:34:01;4.53;;;2.83;;
54464;SDS011;40374;49.480;20.016;2022-09-28T06:36:28;1.20;;;1.05;;
54464;SDS011;40374;49.480;20.016;2022-09-28T06:38:59;2.03;;;1.35;;
54464;SDS011;40374;49.480;20.016;2022-09-28T06:41:26;3.90;;;1.98;;
54464;SDS011;40374;49.480;20.016;2022-09-28T06:43:58;2.83;;;1.20;;
54464;SDS011;40374;49.480;20.016;2022-09-28T06:46:57;1.30;;;1.00;;
54464;SDS011;40374;49.480;20.016;2022-09-28T06:49:54;1.90;;;1.23;;
54464;SDS011;40374;49.480;20.016;2022-09-28T06:52:43;3.53;;;1.23;;
54464;SDS011;40374;49.480;20.016;2022-09-28T06:55:31;1.48;;;1.13;;
54464;SDS011;40374;49.480;20.016;2022-09-28T06:58:02;3.95;;;1.00;;
54464;SDS011;40374;49.480;20.016;2022-09-28T07:00:32;3.80;;;0.82;;
54464;SDS011;40374;49.480;20.016;2022-09-28T07:03:01;4.80;;;1.10;;
54464;SDS011;40374;49.480;20.016;2022-09-28T07:05:43;1.00;;;0.95;;
54464;SDS011;40374;49.480;20.016;2022-09-28T07:08:31;2.38;;;1.20;;
54464;SDS011;40374;49.480;20.016;2022-09-28T07:11:17;2.72;;;2.08;;
54464;SDS011;40374;49.480;20.016;2022-09-28T07:14:16;1.65;;;1.02;;
54464;SDS011;40374;49.480;20.016;2022-09-28T07:17:03;2.30;;;1.30;;
54464;SDS011;40374;49.480;20.016;2022-09-28T07:19:41;2.95;;;1.10;;
54464;SDS011;40374;49.480;20.016;2022-09-28T07:22:09;1.85;;;1.15;;
54464;SDS011;40374;49.480;20.016;2022-09-28T07:24:48;0.95;;;0.82;;
54464;SDS011;40374;49.480;20.016;2022-09-28T07:27:34;2.80;;;1.10;;
54464;SDS011;40374;49.480;20.016;2022-09-28T07:30:31;1.50;;;0.90;;
54464;SDS011;40374;49.480;20.016;2022-09-28T07:33:09;1.70;;;0.70;;
54464;SDS011;40374;49.480;20.016;2022-09-28T07:36:07;2.40;;;0.50;;
54464;SDS011;40374;49.480;20.016;2022-09-28T07:38:37;0.60;;;0.60;;
54464;SDS011;40374;49.480;20.016;2022-09-28T07:41:04;0.50;;;0.50;;
54464;SDS011;40374;49.480;20.016;2022-09-28T07:43:46;1.73;;;1.13;;
54464;SDS011;40374;49.480;20.016;2022-09-28T07:46:15;1.00;;;0.70;;
54464;SDS011;40374;49.480;20.016;2022-09-28T07:48:54;0.70;;;0.60;;
54464;SDS011;40374;49.480;20.016;2022-09-28T07:51:31;1.15;;;0.70;;
54464;SDS011;40374;49.480;20.016;2022-09-28T07:54:37;0.30;;;0.30;;
54464;SDS011;40374;49.480;20.016;2022-09-28T07:57:40;1.58;;;0.50;;
54464;SDS011;40374;49.480;20.016;2022-09-28T08:00:31;0.35;;;0.35;;
54464;SDS011;40374;49.480;20.016;2022-09-28T08:03:01;1.00;;;0.40;;
54464;SDS011;40374;49.480;20.016;2022-09-28T08:05:31;0.60;;;0.60;;
54464;SDS011;40374;49.480;20.016;2022-09-28T08:08:01;1.00;;;0.43;;
54464;SDS011;40374;49.480;20.016;2022-09-28T08:10:29;1.17;;;0.50;;
54464;SDS011;40374;49.480;20.016;2022-09-28T08:13:14;3.38;;;0.40;;
54464;SDS011;40374;49.480;20.016;2022-09-28T08:16:11;1.02;;;0.38;;
54464;SDS011;40374;49.480;20.016;2022-09-28T08:18:47;4.85;;;0.77;;
54464;SDS011;40374;49.480;20.016;2022-09-28T08:21:15;0.52;;;0.40;;
54464;SDS011;40374;49.480;20.016;2022-09-28T08:24:01;0.57;;;0.40;;
54464;SDS011;40374;49.480;20.016;2022-09-28T08:26:28;1.40;;;0.30;;
54464;SDS011;40374;49.480;20.016;2022-09-28T08:28:56;2.63;;;0.40;;
54464;SDS011;40374;49.480;20.016;2022-09-28T08:31:46;0.32;;;0.20;;
54464;SDS011;40374;49.480;20.016;2022-09-28T08:34:37;1.30;;;0.30;;
54464;SDS011;40374;49.480;20.016;2022-09-28T08:37:24;0.20;;;0.20;;
54464;SDS011;40374;49.480;20.016;2022-09-28T08:40:17;4.20;;;0.55;;
54464;SDS011;40374;49.480;20.016;2022-09-28T08:43:19;0.52;;;0.32;;
54464;SDS011;40374;49.480;20.016;2022-09-28T08:46:09;2.63;;;0.35;;
54464;SDS011;40374;49.480;20.016;2022-09-28T08:52:08;1.07;;;0.60;;
54464;SDS011;40374;49.480;20.016;2022-09-28T08:57:36;1.65;;;0.50;;
54464;SDS011;40374;49.480;20.016;2022-09-28T09:00:04;0.43;;;0.22;;
54464;SDS011;40374;49.480;20.016;2022-09-28T09:02:37;0.70;;;0.38;;
54464;SDS011;40374;49.480;20.016;2022-09-28T09:05:13;2.08;;;0.28;;
54464;SDS011;40374;49.480;20.016;2022-09-28T09:14:00;1.23;;;0.30;;
54464;SDS011;40374;49.480;20.016;2022-09-28T09:20:05;0.77;;;0.20;;
54464;SDS011;40374;49.480;20.016;2022-09-28T09:26:16;0.30;;;0.30;;
54464;SDS011;40374;49.480;20.016;2022-09-28T09:40:43;1.02;;;0.30;;
54464;SDS011;40374;49.480;20.016;2022-09-28T09:43:49;0.32;;;0.25;;
54464;SDS011;40374;49.480;20.016;2022-09-28T09:47:15;2.83;;;0.32;;
54464;SDS011;40374;49.480;20.016;2022-09-28T09:53:43;2.70;;;0.25;;
54464;SDS011;40374;49.480;20.016;2022-09-28T09:56:50;1.55;;;0.30;;
54464;SDS011;40374;49.480;20.016;2022-09-28T09:59:39;6.13;;;0.45;;
54464;SDS011;40374;49.480;20.016;2022-09-28T10:02:42;0.73;;;0.40;;
54464;SDS011;40374;49.480;20.016;2022-09-28T10:05:29;0.40;;;0.40;;
54464;SDS011;40374;49.480;20.016;2022-09-28T10:10:36;0.30;;;0.20;;
54464;SDS011;40374;49.480;20.016;2022-09-28T10:13:26;1.98;;;0.20;;
54464;SDS011;40374;49.480;20.016;2022-09-28T10:15:58;1.40;;;0.28;;
54464;SDS011;40374;49.480;20.016;2022-09-28T10:18:35;0.30;;;0.20;;
54464;SDS011;40374;49.480;20.016;2022-09-28T10:21:24;1.20;;;0.60;;
54464;SDS011;40374;49.480;20.016;2022-09-28T10:24:02;2.33;;;0.22;;
54464;SDS011;40374;49.480;20.016;2022-09-28T10:26:36;0.20;;;0.10;;
54464;SDS011;40374;49.480;20.016;2022-09-28T10:29:20;0.57;;;0.30;;
54464;SDS011;40374;49.480;20.016;2022-09-28T10:31:52;0.10;;;0.10;;
54464;SDS011;40374;49.480;20.016;2022-09-28T10:34:46;1.40;;;0.20;;
54464;SDS011;40374;49.480;20.016;2022-09-28T10:37:19;1.10;;;0.30;;
54464;SDS011;40374;49.480;20.016;2022-09-28T10:40:01;0.22;;;0.20;;
54464;SDS011;40374;49.480;20.016;2022-09-28T10:42:33;4.30;;;0.43;;
54464;SDS011;40374;49.480;20.016;2022-09-28T10:45:14;0.35;;;0.35;;
54464;SDS011;40374;49.480;20.016;2022-09-28T10:47:46;1.20;;;0.50;;
54464;SDS011;40374;49.480;20.016;2022-09-28T10:50:19;0.63;;;0.28;;
54464;SDS011;40374;49.480;20.016;2022-09-28T10:53:11;0.68;;;0.38;;
54464;SDS011;40374;49.480;20.016;2022-09-28T10:56:18;0.68;;;0.40;;
54464;SDS011;40374;49.480;20.016;2022-09-28T10:58:52;0.30;;;0.30;;
54464;SDS011;40374;49.480;20.016;2022-09-28T11:01:31;0.40;;;0.40;;
54464;SDS011;40374;49.480;20.016;2022-09-28T11:04:01;0.32;;;0.32;;
54464;SDS011;40374;49.480;20.016;2022-09-28T11:06:36;0.52;;;0.47;;
54464;SDS011;40374;49.480;20.016;2022-09-28T11:12:01;1.75;;;0.40;;
54464;SDS011;40374;49.480;20.016;2022-09-28T11:14:34;1.30;;;0.25;;
54464;SDS011;40374;49.480;20.016;2022-09-28T11:17:34;0.47;;;0.45;;
54464;SDS011;40374;49.480;20.016;2022-09-28T11:22:59;1.73;;;0.47;;
54464;SDS011;40374;49.480;20.016;2022-09-28T11:26:01;0.88;;;0.38;;
54464;SDS011;40374;49.480;20.016;2022-09-28T11:28:35;1.20;;;0.52;;
54464;SDS011;40374;49.480;20.016;2022-09-28T11:31:13;0.35;;;0.35;;
54464;SDS011;40374;49.480;20.016;2022-09-28T11:34:19;0.35;;;0.20;;
54464;SDS011;40374;49.480;20.016;2022-09-28T11:42:48;0.30;;;0.28;;
54464;SDS011;40374;49.480;20.016;2022-09-28T11:48:12;0.80;;;0.52;;
54464;SDS011;40374;49.480;20.016;2022-09-28T11:50:48;0.40;;;0.40;;
54464;SDS011;40374;49.480;20.016;2022-09-28T12:13:44;0.32;;;0.32;;
54464;SDS011;40374;49.480;20.016;2022-09-28T12:15:46;2.83;;;0.60;;
54464;SDS011;40374;49.480;20.016;2022-09-28T12:21:37;0.98;;;0.30;;
54464;SDS011;40374;49.480;20.016;2022-09-28T12:24:11;3.25;;;0.40;;
54464;SDS011;40374;49.480;20.016;2022-09-28T12:34:49;3.50;;;0.85;;
54464;SDS011;40374;49.480;20.016;2022-09-28T12:42:51;0.95;;;0.57;;
54464;SDS011;40374;49.480;20.016;2022-09-28T12:45:40;4.20;;;0.40;;
54464;SDS011;40374;49.480;20.016;2022-09-28T13:19:18;0.95;;;0.70;;
54464;SDS011;40374;49.480;20.016;2022-09-28T13:25:01;0.50;;;0.43;;
54464;SDS011;40374;49.480;20.016;2022-09-28T13:27:38;4.22;;;0.52;;
54464;SDS011;40374;49.480;20.016;2022-09-28T13:30:12;0.70;;;0.40;;
54464;SDS011;40374;49.480;20.016;2022-09-28T13:32:45;0.63;;;0.40;;
54464;SDS011;40374;49.480;20.016;2022-09-28T13:35:15;0.98;;;0.50;;
54464;SDS011;40374;49.480;20.016;2022-09-28T13:37:46;4.40;;;1.58;;
54464;SDS011;40374;49.480;20.016;2022-09-28T13:46:19;1.88;;;0.93;;
54464;SDS011;40374;49.480;20.016;2022-09-28T13:51:55;0.80;;;0.55;;
54464;SDS011;40374;49.480;20.016;2022-09-28T14:00:03;2.08;;;0.45;;
54464;SDS011;40374;49.480;20.016;2022-09-28T14:02:40;0.75;;;0.43;;
54464;SDS011;40374;49.480;20.016;2022-09-28T14:11:21;2.60;;;0.68;;
54464;SDS011;40374;49.480;20.016;2022-09-28T14:13:57;1.95;;;0.28;;
54464;SDS011;40374;49.480;20.016;2022-09-28T14:16:34;0.28;;;0.28;;
54464;SDS011;40374;49.480;20.016;2022-09-28T14:19:19;1.92;;;0.40;;
54464;SDS011;40374;49.480;20.016;2022-09-28T14:29:38;2.80;;;1.70;;
54464;SDS011;40374;49.480;20.016;2022-09-28T14:34:37;2.33;;;1.52;;
54464;SDS011;40374;49.480;20.016;2022-09-28T14:40:31;6.10;;;2.75;;
54464;SDS011;40374;49.480;20.016;2022-09-28T14:48:48;1.77;;;1.20;;
54464;SDS011;40374;49.480;20.016;2022-09-28T14:53:53;6.82;;;1.42;;
54464;SDS011;40374;49.480;20.016;2022-09-28T14:56:27;8.05;;;1.80;;
54464;SDS011;40374;49.480;20.016;2022-09-28T14:58:58;3.67;;;1.75;;
54464;SDS011;40374;49.480;20.016;2022-09-28T15:01:26;2.28;;;1.05;;
54464;SDS011;40374;49.480;20.016;2022-09-28T15:03:55;34.92;;;16.58;;
54464;SDS011;40374;49.480;20.016;2022-09-28T15:06:44;9.25;;;5.07;;
54464;SDS011;40374;49.480;20.016;2022-09-28T15:09:29;7.00;;;4.50;;
54464;SDS011;40374;49.480;20.016;2022-09-28T15:14:33;12.25;;;5.85;;
54464;SDS011;40374;49.480;20.016;2022-09-28T15:17:09;2.50;;;1.23;;
54464;SDS011;40374;49.480;20.016;2022-09-28T15:20:25;2.15;;;1.45;;
54464;SDS011;40374;49.480;20.016;2022-09-28T15:22:33;5.85;;;2.72;;
54464;SDS011;40374;49.480;20.016;2022-09-28T15:25:02;4.28;;;2.28;;
54464;SDS011;40374;49.480;20.016;2022-09-28T15:27:39;4.22;;;2.15;;
54464;SDS011;40374;49.480;20.016;2022-09-28T15:32:53;6.45;;;2.42;;
54464;SDS011;40374;49.480;20.016;2022-09-28T15:35:23;6.25;;;2.40;;
54464;SDS011;40374;49.480;20.016;2022-09-28T15:37:53;65.10;;;35.55;;
54464;SDS011;40374;49.480;20.016;2022-09-28T15:40:31;14.98;;;5.43;;
54464;SDS011;40374;49.480;20.016;2022-09-28T15:43:18;8.82;;;3.55;;
54464;SDS011;40374;49.480;20.016;2022-09-28T15:46:07;12.90;;;5.20;;
54464;SDS011;40374;49.480;20.016;2022-09-28T15:51:24;3.53;;;1.80;;
54464;SDS011;40374;49.480;20.016;2022-09-28T15:53:59;2.88;;;1.30;;
54464;SDS011;40374;49.480;20.016;2022-09-28T15:56:31;6.32;;;1.58;;
54464;SDS011;40374;49.480;20.016;2022-09-28T15:59:31;3.03;;;1.50;;
54464;SDS011;40374;49.480;20.016;2022-09-28T16:04:43;5.57;;;2.00;;
54464;SDS011;40374;49.480;20.016;2022-09-28T16:15:17;9.20;;;4.43;;
54464;SDS011;40374;49.480;20.016;2022-09-28T16:17:54;15.15;;;6.65;;
54464;SDS011;40374;49.480;20.016;2022-09-28T16:20:27;13.68;;;6.60;;
54464;SDS011;40374;49.480;20.016;2022-09-28T16:22:59;15.05;;;6.97;;
54464;SDS011;40374;49.480;20.016;2022-09-28T16:25:34;16.73;;;7.50;;
54464;SDS011;40374;49.480;20.016;2022-09-28T16:28:05;19.73;;;8.50;;
54464;SDS011;40374;49.480;20.016;2022-09-28T16:30:33;32.58;;;15.75;;
54464;SDS011;40374;49.480;20.016;2022-09-28T16:33:02;44.88;;;21.00;;
54464;SDS011;40374;49.480;20.016;2022-09-28T16:35:34;46.35;;;21.70;;
54464;SDS011;40374;49.480;20.016;2022-09-28T16:38:17;31.75;;;17.00;;
54464;SDS011;40374;49.480;20.016;2022-09-28T16:40:46;33.75;;;16.20;;
54464;SDS011;40374;49.480;20.016;2022-09-28T16:43:28;46.53;;;19.98;;
54464;SDS011;40374;49.480;20.016;2022-09-28T16:45:57;41.88;;;19.33;;
54464;SDS011;40374;49.480;20.016;2022-09-28T16:48:29;37.00;;;20.13;;
54464;SDS011;40374;49.480;20.016;2022-09-28T16:51:00;37.15;;;18.55;;
54464;SDS011;40374;49.480;20.016;2022-09-28T16:53:27;36.72;;;18.13;;
54464;SDS011;40374;49.480;20.016;2022-09-28T16:56:14;37.67;;;18.95;;
54464;SDS011;40374;49.480;20.016;2022-09-28T16:58:41;159.00;;;41.83;;
54464;SDS011;40374;49.480;20.016;2022-09-28T17:01:10;718.95;;;232.38;;
54464;SDS011;40374;49.480;20.016;2022-09-28T17:03:39;405.38;;;112.15;;
54464;SDS011;40374;49.480;20.016;2022-09-28T17:06:12;270.70;;;80.00;;
54464;SDS011;40374;49.480;20.016;2022-09-28T17:08:41;215.32;;;65.88;;
54464;SDS011;40374;49.480;20.016;2022-09-28T17:11:11;188.32;;;62.05;;
54464;SDS011;40374;49.480;20.016;2022-09-28T17:13:52;255.70;;;86.10;;
54464;SDS011;40374;49.480;20.016;2022-09-28T17:16:26;217.02;;;75.25;;
54464;SDS011;40374;49.480;20.016;2022-09-28T17:19:18;162.23;;;63.70;;
54464;SDS011;40374;49.480;20.016;2022-09-28T17:21:50;121.90;;;50.22;;
54464;SDS011;40374;49.480;20.016;2022-09-28T17:24:18;102.22;;;42.63;;
54464;SDS011;40374;49.480;20.016;2022-09-28T17:26:48;90.40;;;39.55;;
54464;SDS011;40374;49.480;20.016;2022-09-28T17:29:16;76.22;;;34.83;;
54464;SDS011;40374;49.480;20.016;2022-09-28T17:31:45;71.65;;;33.42;;
54464;SDS011;40374;49.480;20.016;2022-09-28T17:34:13;56.08;;;26.02;;
54464;SDS011;40374;49.480;20.016;2022-09-28T17:36:45;67.28;;;30.08;;
54464;SDS011;40374;49.480;20.016;2022-09-28T17:39:14;53.97;;;26.33;;
54464;SDS011;40374;49.480;20.016;2022-09-28T17:41:47;70.75;;;28.42;;
54464;SDS011;40374;49.480;20.016;2022-09-28T17:44:17;46.35;;;22.35;;
54464;SDS011;40374;49.480;20.016;2022-09-28T17:46:46;43.53;;;21.63;;
54464;SDS011;40374;49.480;20.016;2022-09-28T17:49:16;41.72;;;19.55;;
54464;SDS011;40374;49.480;20.016;2022-09-28T17:51:44;43.00;;;21.40;;
54464;SDS011;40374;49.480;20.016;2022-09-28T17:54:12;41.60;;;21.13;;
54464;SDS011;40374;49.480;20.016;2022-09-28T17:56:42;47.40;;;23.40;;
54464;SDS011;40374;49.480;20.016;2022-09-28T17:59:11;54.38;;;26.15;;
54464;SDS011;40374;49.480;20.016;2022-09-28T18:01:40;56.05;;;27.20;;
54464;SDS011;40374;49.480;20.016;2022-09-28T18:04:09;61.97;;;30.25;;
54464;SDS011;40374;49.480;20.016;2022-09-28T18:06:54;53.78;;;28.40;;
54464;SDS011;40374;49.480;20.016;2022-09-28T18:09:21;53.92;;;25.80;;
54464;SDS011;40374;49.480;20.016;2022-09-28T18:11:55;45.90;;;21.52;;
54464;SDS011;40374;49.480;20.016;2022-09-28T18:14:27;42.90;;;20.42;;
54464;SDS011;40374;49.480;20.016;2022-09-28T18:16:54;34.20;;;16.55;;
54464;SDS011;40374;49.480;20.016;2022-09-28T18:19:23;35.88;;;15.13;;
54464;SDS011;40374;49.480;20.016;2022-09-28T18:21:57;35.05;;;14.50;;
54464;SDS011;40374;49.480;20.016;2022-09-28T18:24:25;28.88;;;16.92;;
54464;SDS011;40374;49.480;20.016;2022-09-28T18:26:52;25.08;;;13.82;;
54464;SDS011;40374;49.480;20.016;2022-09-28T18:29:20;25.80;;;11.20;;
54464;SDS011;40374;49.480;20.016;2022-09-28T18:31:47;26.13;;;13.20;;
54464;SDS011;40374;49.480;20.016;2022-09-28T18:34:14;30.02;;;13.93;;
54464;SDS011;40374;49.480;20.016;2022-09-28T18:36:42;41.95;;;17.55;;
54464;SDS011;40374;49.480;20.016;2022-09-28T18:39:10;46.03;;;22.15;;
54464;SDS011;40374;49.480;20.016;2022-09-28T18:41:37;48.42;;;21.15;;
54464;SDS011;40374;49.480;20.016;2022-09-28T18:44:09;36.38;;;15.57;;
54464;SDS011;40374;49.480;20.016;2022-09-28T18:46:37;27.40;;;12.25;;
54464;SDS011;40374;49.480;20.016;2022-09-28T18:49:06;33.33;;;15.95;;
54464;SDS011;40374;49.480;20.016;2022-09-28T18:51:33;28.02;;;13.25;;
54464;SDS011;40374;49.480;20.016;2022-09-28T18:54:01;52.25;;;27.50;;
54464;SDS011;40374;49.480;20.016;2022-09-28T18:56:33;49.58;;;23.42;;
54464;SDS011;40374;49.480;20.016;2022-09-28T18:59:04;36.33;;;18.23;;
54464;SDS011;40374;49.480;20.016;2022-09-28T19:01:38;50.13;;;22.08;;
54464;SDS011;40374;49.480;20.016;2022-09-28T19:04:10;55.92;;;21.70;;
54464;SDS011;40374;49.480;20.016;2022-09-28T19:06:39;45.42;;;21.52;;
54464;SDS011;40374;49.480;20.016;2022-09-28T19:09:10;53.72;;;22.15;;
54464;SDS011;40374;49.480;20.016;2022-09-28T19:11:41;44.92;;;20.38;;